createdAt,value
2022-11-29T00:00:09.727Z,101037.19
2022-11-29T00:01:02.522Z,101038.03
2022-11-29T00:01:49.245Z,101038.03
2022-11-29T00:02:35.847Z,101039.78
2022-11-29T00:03:22.582Z,101046.72
2022-11-29T00:04:10.184Z,101036.25
2022-11-29T00:04:56.761Z,101037.06
2022-11-29T00:05:44.100Z,101049.13
2022-11-29T00:06:33.131Z,101042.25
2022-11-29T00:07:20.990Z,101040.59
2022-11-29T00:08:07.846Z,101046.59
2022-11-29T00:08:57.399Z,101037.09
2022-11-29T00:09:44.411Z,101042.16
2022-11-29T00:10:31.110Z,101040.41
2022-11-29T00:11:41.696Z,101042.25
2022-11-29T00:12:28.243Z,101044.88
2022-11-29T00:13:15.037Z,101040.53
2022-11-29T00:14:01.829Z,101038.81
2022-11-29T00:14:48.962Z,101044.06
2022-11-29T00:15:37.174Z,101045.88
2022-11-29T00:16:23.881Z,101043.31
2022-11-29T00:17:10.719Z,101043.31
2022-11-29T00:17:57.371Z,101039.88
2022-11-29T00:18:43.982Z,101045.94
2022-11-29T00:19:32.671Z,101034.69
2022-11-29T00:20:19.487Z,101044.28
2022-11-29T00:21:07.805Z,101039.06
2022-11-29T00:21:54.440Z,101041.69
2022-11-29T00:22:41.261Z,101039.09
2022-11-29T00:23:30.261Z,101042.66
2022-11-29T00:24:17.695Z,101045.28
2022-11-29T00:25:05.830Z,101035.75
2022-11-29T00:25:52.912Z,101041.75
2022-11-29T00:26:39.799Z,101039.25
2022-11-29T00:27:26.416Z,101040.00
2022-11-29T00:28:13.172Z,101037.41
2022-11-29T00:28:59.914Z,101039.06
2022-11-29T00:29:46.561Z,101040.75
2022-11-29T00:30:34.323Z,101043.34
2022-11-29T00:31:27.499Z,101045.88
2022-11-29T00:32:14.142Z,101049.41
2022-11-29T00:33:00.919Z,101042.59
2022-11-29T00:33:48.348Z,101043.53
2022-11-29T00:34:35.192Z,101042.69
2022-11-29T00:35:22.062Z,101037.59
2022-11-29T00:36:09.149Z,101049.72
2022-11-29T00:36:56.056Z,101046.34
2022-11-29T00:37:42.657Z,101045.53
2022-11-29T00:38:29.643Z,101042.00
2022-11-29T00:39:16.807Z,101051.50
2022-11-29T00:40:05.602Z,101041.06
2022-11-29T00:40:52.695Z,101037.63
2022-11-29T00:41:40.302Z,101043.81
2022-11-29T00:42:27.233Z,101040.34
2022-11-29T00:43:13.900Z,101043.03
2022-11-29T00:44:00.615Z,101043.03
2022-11-29T00:44:48.301Z,101043.13
2022-11-29T00:45:35.111Z,101037.84
2022-11-29T00:46:22.558Z,101037.94
2022-11-29T00:47:09.614Z,101043.97
2022-11-29T00:47:56.347Z,101038.78
2022-11-29T00:48:43.153Z,101030.16
2022-11-29T00:49:29.932Z,101043.13
2022-11-29T00:50:16.847Z,101040.44
2022-11-29T00:51:06.141Z,101037.69
2022-11-29T00:51:53.112Z,101048.91
2022-11-29T00:52:39.755Z,101044.47
2022-11-29T00:53:26.535Z,101041.84
2022-11-29T00:54:13.217Z,101043.59
2022-11-29T00:55:00.105Z,101039.34
2022-11-29T00:55:51.923Z,101042.81
2022-11-29T00:56:39.089Z,101041.06
2022-11-29T00:57:25.819Z,101047.16
2022-11-29T00:58:12.683Z,101042.06
2022-11-29T00:58:59.581Z,101042.09
2022-11-29T00:59:46.206Z,101049.13
2022-11-29T01:00:33.187Z,101044.81
2022-11-29T01:01:19.863Z,101051.72
2022-11-29T01:02:07.458Z,101048.09
2022-11-29T01:02:54.303Z,101045.47
2022-11-29T01:03:41.037Z,101052.34
2022-11-29T01:04:28.823Z,101052.44
2022-11-29T01:05:15.600Z,101052.34
2022-11-29T01:06:06.838Z,101048.06
2022-11-29T01:06:56.196Z,101049.06
2022-11-29T01:07:46.008Z,101043.75
2022-11-29T01:08:33.722Z,101049.00
2022-11-29T01:09:20.996Z,101047.28
2022-11-29T01:10:08.866Z,101036.09
2022-11-29T01:11:12.039Z,101039.59
2022-11-29T01:12:04.046Z,101039.69
2022-11-29T01:12:54.633Z,101039.75
2022-11-29T01:13:42.483Z,101037.94
2022-11-29T01:14:29.223Z,101043.97
2022-11-29T01:15:16.050Z,101040.53
2022-11-29T01:16:04.912Z,101043.94
2022-11-29T01:16:51.684Z,101040.53
2022-11-29T01:17:40.796Z,101042.22
2022-11-29T01:18:28.118Z,101044.88
2022-11-29T01:19:14.882Z,101043.97
2022-11-29T01:20:02.368Z,101045.63
2022-11-29T01:21:24.732Z,101045.69
2022-11-29T01:22:13.759Z,101044.75
2022-11-29T01:23:03.106Z,101046.47
2022-11-29T01:23:51.657Z,101047.34
2022-11-29T01:24:38.712Z,101045.63
2022-11-29T01:25:26.177Z,101043.81
2022-11-29T01:26:17.117Z,101043.00
2022-11-29T01:27:03.999Z,101044.81
2022-11-29T01:27:50.767Z,101038.69
2022-11-29T01:28:40.795Z,101037.00
2022-11-29T01:29:27.641Z,101045.69
2022-11-29T01:30:14.879Z,101047.41
2022-11-29T01:31:12.513Z,101049.06
2022-11-29T01:32:00.390Z,101053.38
2022-11-29T01:32:47.194Z,101043.81
2022-11-29T01:33:35.849Z,101050.69
2022-11-29T01:34:26.054Z,101050.81
2022-11-29T01:35:12.753Z,101057.66
2022-11-29T01:35:59.704Z,101049.88
2022-11-29T01:36:46.441Z,101052.47
2022-11-29T01:37:33.245Z,101049.00
2022-11-29T01:38:21.572Z,101057.66
2022-11-29T01:39:10.271Z,101055.84
2022-11-29T01:40:00.931Z,101059.19
2022-11-29T01:41:05.778Z,101053.13
2022-11-29T01:41:52.394Z,101060.09
2022-11-29T01:42:39.091Z,101057.50
2022-11-29T01:43:26.047Z,101051.50
2022-11-29T01:44:12.594Z,101060.19
2022-11-29T01:45:18.957Z,101055.84
2022-11-29T01:46:06.075Z,101058.47
2022-11-29T01:46:54.348Z,101056.78
2022-11-29T01:47:45.478Z,101061.19
2022-11-29T01:48:33.698Z,101061.19
2022-11-29T01:49:32.914Z,101062.94
2022-11-29T01:50:21.096Z,101062.13
2022-11-29T01:51:07.846Z,101057.75
2022-11-29T01:52:01.124Z,101056.94
2022-11-29T01:52:48.287Z,101055.16
2022-11-29T01:53:34.943Z,101061.25
2022-11-29T01:54:22.656Z,101066.34
2022-11-29T01:55:10.110Z,101066.47
2022-11-29T01:56:03.974Z,101057.72
2022-11-29T01:56:53.086Z,101068.94
2022-11-29T01:57:43.239Z,101075.84
2022-11-29T01:58:30.406Z,101068.09
2022-11-29T01:59:21.806Z,101063.72
2022-11-29T02:00:15.146Z,101072.44
2022-11-29T02:01:11.859Z,101074.22
2022-11-29T02:02:12.752Z,101072.47
2022-11-29T02:03:10.191Z,101069.03
2022-11-29T02:03:56.903Z,101070.72
2022-11-29T02:04:46.910Z,101075.16
2022-11-29T02:05:33.989Z,101073.38
2022-11-29T02:06:20.873Z,101072.47
2022-11-29T02:07:08.105Z,101076.84
2022-11-29T02:07:59.244Z,101077.66
2022-11-29T02:08:46.038Z,101070.78
2022-11-29T02:09:32.767Z,101076.00
2022-11-29T02:10:20.231Z,101070.91
2022-11-29T02:11:45.839Z,101071.72
2022-11-29T02:12:32.444Z,101068.25
2022-11-29T02:13:45.621Z,101076.91
2022-11-29T02:14:56.399Z,101079.50
2022-11-29T02:15:56.528Z,101075.25
2022-11-29T02:17:04.049Z,101075.31
2022-11-29T02:18:05.428Z,101076.25
2022-11-29T02:19:39.686Z,101083.19
2022-11-29T02:20:44.948Z,101077.06
2022-11-29T02:21:45.692Z,101079.78
2022-11-29T02:22:44.373Z,101080.56
2022-11-29T02:23:58.464Z,101072.81
2022-11-29T02:25:06.501Z,101083.19
2022-11-29T02:26:37.929Z,101081.50
2022-11-29T02:28:12.643Z,101071.19
2022-11-29T02:29:24.285Z,101071.25
2022-11-29T02:30:42.899Z,101076.44
2022-11-29T02:31:57.427Z,101080.78
2022-11-29T02:33:16.024Z,101075.59
2022-11-29T02:34:08.628Z,101075.59
2022-11-29T02:35:14.588Z,101072.13
2022-11-29T02:36:15.895Z,101080.75
2022-11-29T02:37:40.773Z,101076.38
2022-11-29T02:38:48.692Z,101081.56
2022-11-29T02:40:10.703Z,101074.56
2022-11-29T02:41:11.264Z,101078.00
2022-11-29T02:42:31.373Z,101071.97
2022-11-29T02:43:35.879Z,101071.13
2022-11-29T02:44:41.672Z,101071.00
2022-11-29T02:45:40.333Z,101076.19
2022-11-29T02:46:45.575Z,101075.38
2022-11-29T02:47:48.656Z,101080.56
2022-11-29T02:48:53.635Z,101081.38
2022-11-29T02:50:00.780Z,101070.19
2022-11-29T02:50:56.083Z,101082.31
2022-11-29T02:52:26.055Z,101086.69
2022-11-29T02:53:22.872Z,101086.69
2022-11-29T02:54:25.714Z,101077.25
2022-11-29T02:55:44.888Z,101077.31
2022-11-29T02:56:53.552Z,101081.69
2022-11-29T02:58:01.501Z,101082.63
2022-11-29T02:59:06.596Z,101083.34
2022-11-29T03:00:33.151Z,101090.94
2022-11-29T03:01:37.273Z,101091.94
2022-11-29T03:02:48.425Z,101082.22
2022-11-29T03:04:15.581Z,101084.72
2022-11-29T03:05:35.676Z,101086.38
2022-11-29T03:06:36.554Z,101092.50
2022-11-29T03:07:45.119Z,101089.16
2022-11-29T03:08:52.993Z,101089.19
2022-11-29T03:09:55.635Z,101096.16
2022-11-29T03:10:51.550Z,101093.69
2022-11-29T03:11:56.842Z,101091.88
2022-11-29T03:12:51.876Z,101088.38
2022-11-29T03:14:20.278Z,101099.72
2022-11-29T03:15:18.520Z,101097.91
2022-11-29T03:16:42.872Z,101097.91
2022-11-29T03:17:52.993Z,101091.88
2022-11-29T03:19:04.146Z,101092.72
2022-11-29T03:20:21.917Z,101101.41
2022-11-29T03:21:16.984Z,101097.06
2022-11-29T03:22:17.307Z,101097.06
2022-11-29T03:23:36.148Z,101096.97
2022-11-29T03:24:35.568Z,101103.06
2022-11-29T03:25:31.414Z,101097.88
2022-11-29T03:26:35.416Z,101100.41
2022-11-29T03:27:50.619Z,101099.63
2022-11-29T03:28:51.209Z,101110.88
2022-11-29T03:29:50.423Z,101107.41
2022-11-29T03:30:44.085Z,101105.66
2022-11-29T03:31:43.538Z,101109.19
2022-11-29T03:32:54.456Z,101108.28
2022-11-29T03:34:18.097Z,101114.38
2022-11-29T03:35:24.634Z,101113.63
2022-11-29T03:36:36.061Z,101119.75
2022-11-29T03:37:50.289Z,101110.19
2022-11-29T03:38:44.998Z,101113.66
2022-11-29T03:39:43.275Z,101113.72
2022-11-29T03:40:45.564Z,101111.06
2022-11-29T03:41:48.898Z,101122.13
2022-11-29T03:42:41.631Z,101116.06
2022-11-29T03:43:45.700Z,101113.53
2022-11-29T03:44:41.774Z,101111.78
2022-11-29T03:45:39.512Z,101110.75
2022-11-29T03:46:56.760Z,101116.00
2022-11-29T03:47:59.984Z,101113.53
2022-11-29T03:48:54.460Z,101122.25
2022-11-29T03:49:52.530Z,101117.16
2022-11-29T03:50:44.980Z,101118.91
2022-11-29T03:51:53.103Z,101118.94
2022-11-29T03:52:42.206Z,101119.03
2022-11-29T03:53:37.786Z,101124.22
2022-11-29T03:54:56.986Z,101125.91
2022-11-29T03:56:04.957Z,101132.84
2022-11-29T03:56:51.755Z,101130.34
2022-11-29T03:58:02.049Z,101125.16
2022-11-29T03:59:05.136Z,101130.25
2022-11-29T04:00:04.108Z,101129.63
2022-11-29T04:01:37.425Z,101133.97
2022-11-29T04:02:58.492Z,101133.09
2022-11-29T04:04:15.581Z,101129.66
2022-11-29T04:05:17.037Z,101127.03
2022-11-29T04:06:20.470Z,101135.78
2022-11-29T04:07:32.973Z,101129.66
2022-11-29T04:08:43.644Z,101133.97
2022-11-29T04:09:41.391Z,101136.63
2022-11-29T04:10:55.049Z,101133.19
2022-11-29T04:12:18.784Z,101131.38
2022-11-29T04:13:43.068Z,101136.50
2022-11-29T04:14:44.807Z,101135.69
2022-11-29T04:15:46.886Z,101133.91
2022-11-29T04:16:45.515Z,101128.69
2022-11-29T04:17:35.133Z,101136.50
2022-11-29T04:18:52.296Z,101139.09
2022-11-29T04:19:59.097Z,101140.03
2022-11-29T04:20:51.356Z,101141.75
2022-11-29T04:21:56.206Z,101141.75
2022-11-29T04:22:56.416Z,101143.53
2022-11-29T04:24:21.258Z,101146.94
2022-11-29T04:25:41.993Z,101141.78
2022-11-29T04:27:05.418Z,101140.03
2022-11-29T04:27:52.000Z,101143.41
2022-11-29T04:29:12.179Z,101144.16
2022-11-29T04:30:19.066Z,101141.56
2022-11-29T04:31:52.671Z,101144.03
2022-11-29T04:32:57.735Z,101141.41
2022-11-29T04:34:17.604Z,101143.94
2022-11-29T04:35:31.955Z,101147.44
2022-11-29T04:36:40.171Z,101150.00
2022-11-29T04:37:44.771Z,101147.31
2022-11-29T04:39:04.367Z,101141.03
2022-11-29T04:40:24.813Z,101145.34
2022-11-29T04:41:44.403Z,101149.63
2022-11-29T04:42:50.144Z,101159.13
2022-11-29T04:44:07.543Z,101155.66
2022-11-29T04:45:15.382Z,101153.88
2022-11-29T04:46:23.672Z,101154.66
2022-11-29T04:47:15.870Z,101161.59
2022-11-29T04:48:21.311Z,101165.84
2022-11-29T04:49:26.901Z,101160.66
2022-11-29T04:50:42.882Z,101165.03
2022-11-29T04:51:45.081Z,101164.09
2022-11-29T04:52:56.464Z,101162.34
2022-11-29T04:54:24.126Z,101161.25
2022-11-29T04:55:43.879Z,101171.63
2022-11-29T04:56:44.219Z,101174.13
2022-11-29T04:57:40.124Z,101161.28
2022-11-29T04:58:55.234Z,101170.84
2022-11-29T05:00:02.675Z,101172.56
2022-11-29T05:01:04.281Z,101172.59
2022-11-29T05:02:50.804Z,101176.97
2022-11-29T05:03:57.250Z,101174.38
2022-11-29T05:05:02.047Z,101176.13
2022-11-29T05:06:09.584Z,101176.13
2022-11-29T05:07:12.430Z,101178.81
2022-11-29T05:08:31.353Z,101183.16
2022-11-29T05:09:46.587Z,101178.97
2022-11-29T05:10:51.418Z,101182.25
2022-11-29T05:12:01.999Z,101192.50
2022-11-29T05:13:05.225Z,101185.56
2022-11-29T05:14:06.004Z,101180.38
2022-11-29T05:15:40.992Z,101190.97
2022-11-29T05:16:53.490Z,101184.94
2022-11-29T05:18:35.780Z,101190.75
2022-11-29T05:19:50.436Z,101190.63
2022-11-29T05:21:08.826Z,101200.13
2022-11-29T05:22:01.022Z,101195.75
2022-11-29T05:23:22.420Z,101196.59
2022-11-29T05:24:47.549Z,101200.00
2022-11-29T05:25:37.663Z,101199.94
2022-11-29T05:26:45.891Z,101199.19
2022-11-29T05:27:47.158Z,101201.69
2022-11-29T05:28:40.283Z,101203.47
2022-11-29T05:29:57.445Z,101202.50
2022-11-29T05:31:12.412Z,101200.88
2022-11-29T05:32:34.735Z,101205.94
2022-11-29T05:33:52.605Z,101197.34
2022-11-29T05:35:16.333Z,101207.81
2022-11-29T05:36:18.907Z,101209.53
2022-11-29T05:37:05.358Z,101206.00
2022-11-29T05:38:02.192Z,101211.94
2022-11-29T05:39:08.741Z,101207.66
2022-11-29T05:39:55.460Z,101211.06
2022-11-29T05:41:05.631Z,101212.75
2022-11-29T05:42:28.948Z,101214.53
2022-11-29T05:43:36.737Z,101218.03
2022-11-29T05:44:42.027Z,101216.25
2022-11-29T05:45:46.615Z,101212.75
2022-11-29T05:46:54.199Z,101218.88
2022-11-29T05:48:21.896Z,101217.19
2022-11-29T05:49:25.209Z,101228.31
2022-11-29T05:50:32.483Z,101212.69
2022-11-29T05:51:29.174Z,101217.03
2022-11-29T05:52:33.301Z,101230.00
2022-11-29T05:53:55.167Z,101230.78
2022-11-29T05:55:06.067Z,101234.31
2022-11-29T05:56:02.509Z,101232.53
2022-11-29T05:57:06.440Z,101227.34
2022-11-29T05:58:31.507Z,101235.16
2022-11-29T05:59:28.517Z,101236.16
2022-11-29T06:00:19.008Z,101234.31
2022-11-29T06:01:33.862Z,101234.31
2022-11-29T06:02:31.651Z,101236.97
2022-11-29T06:03:56.607Z,101235.16
2022-11-29T06:05:04.702Z,101240.31
2022-11-29T06:06:01.252Z,101240.34
2022-11-29T06:07:15.011Z,101237.72
2022-11-29T06:08:13.416Z,101246.34
2022-11-29T06:09:13.962Z,101243.03
2022-11-29T06:10:11.552Z,101239.50
2022-11-29T06:11:12.046Z,101243.84
2022-11-29T06:12:23.046Z,101242.16
2022-11-29T06:13:38.347Z,101249.03
2022-11-29T06:14:49.303Z,101244.78
2022-11-29T06:16:06.271Z,101245.75
2022-11-29T06:17:18.825Z,101258.69
2022-11-29T06:18:34.319Z,101249.16
2022-11-29T06:19:42.485Z,101255.41
2022-11-29T06:20:48.426Z,101256.19
2022-11-29T06:21:52.503Z,101249.16
2022-11-29T06:23:25.464Z,101252.56
2022-11-29T06:24:30.015Z,101261.25
2022-11-29T06:25:26.704Z,101258.69
2022-11-29T06:26:58.224Z,101261.38
2022-11-29T06:28:10.463Z,101264.91
2022-11-29T06:29:15.319Z,101262.19
2022-11-29T06:30:09.140Z,101260.41
2022-11-29T06:31:48.230Z,101263.06
2022-11-29T06:32:56.301Z,101267.25
2022-11-29T06:33:59.100Z,101266.44
2022-11-29T06:35:05.117Z,101263.84
2022-11-29T06:36:15.883Z,101263.84
2022-11-29T06:37:16.890Z,101260.28
2022-11-29T06:38:23.243Z,101261.97
2022-11-29T06:39:12.300Z,101265.47
2022-11-29T06:40:00.184Z,101268.84
2022-11-29T06:40:48.692Z,101269.06
2022-11-29T06:41:35.684Z,101262.06
2022-11-29T06:42:22.454Z,101267.25
2022-11-29T06:43:09.732Z,101267.50
2022-11-29T06:43:57.123Z,101268.94
2022-11-29T06:44:44.353Z,101270.66
2022-11-29T06:45:31.631Z,101277.53
2022-11-29T06:46:45.549Z,101276.72
2022-11-29T06:48:01.776Z,101280.19
2022-11-29T06:49:03.917Z,101274.03
2022-11-29T06:50:10.506Z,101282.59
2022-11-29T06:51:21.983Z,101280.19
2022-11-29T06:52:22.754Z,101280.31
2022-11-29T06:53:19.765Z,101276.84
2022-11-29T06:54:14.637Z,101284.72
2022-11-29T06:55:36.518Z,101286.44
2022-11-29T06:56:29.231Z,101288.09
2022-11-29T06:57:37.248Z,101289.78
2022-11-29T06:58:42.135Z,101293.19
2022-11-29T07:00:08.851Z,101290.59
2022-11-29T07:01:41.758Z,101288.91
2022-11-29T07:02:45.140Z,101294.91
2022-11-29T07:03:51.982Z,101295.88
2022-11-29T07:05:29.256Z,101299.28
2022-11-29T07:06:23.733Z,101303.56
2022-11-29T07:07:20.845Z,101303.56
2022-11-29T07:08:26.238Z,101305.41
2022-11-29T07:09:17.001Z,101303.78
2022-11-29T07:10:08.300Z,101304.50
2022-11-29T07:10:59.823Z,101305.41
2022-11-29T07:11:47.751Z,101309.81
2022-11-29T07:12:34.782Z,101304.63
2022-11-29T07:13:22.417Z,101306.41
2022-11-29T07:14:10.158Z,101308.13
2022-11-29T07:14:58.044Z,101309.81
2022-11-29T07:16:00.016Z,101305.53
2022-11-29T07:17:02.233Z,101311.66
2022-11-29T07:18:15.065Z,101311.81
2022-11-29T07:19:07.743Z,101317.84
2022-11-29T07:20:26.187Z,101309.22
2022-11-29T07:21:39.492Z,101306.66
2022-11-29T07:22:59.603Z,101314.50
2022-11-29T07:24:04.622Z,101317.84
2022-11-29T07:25:01.882Z,101318.66
2022-11-29T07:26:10.261Z,101308.31
2022-11-29T07:27:11.448Z,101309.25
2022-11-29T07:28:29.006Z,101309.22
2022-11-29T07:29:45.654Z,101313.56
2022-11-29T07:30:50.978Z,101312.06
2022-11-29T07:32:06.060Z,101313.13
2022-11-29T07:33:05.821Z,101307.84
2022-11-29T07:34:29.206Z,101313.00
2022-11-29T07:35:29.295Z,101312.09
2022-11-29T07:36:35.849Z,101318.91
2022-11-29T07:37:40.921Z,101323.25
2022-11-29T07:39:04.735Z,101324.06
2022-11-29T07:40:14.199Z,101318.06
2022-11-29T07:41:15.518Z,101322.22
2022-11-29T07:42:44.879Z,101319.69
2022-11-29T07:43:49.991Z,101327.53
2022-11-29T07:44:47.489Z,101323.13
2022-11-29T07:45:38.369Z,101324.75
2022-11-29T07:46:25.753Z,101327.28
2022-11-29T07:47:15.660Z,101332.44
2022-11-29T07:48:04.063Z,101336.25
2022-11-29T07:48:51.414Z,101334.44
2022-11-29T07:49:39.218Z,101333.59
2022-11-29T07:50:28.685Z,101339.59
2022-11-29T07:51:15.572Z,101332.69
2022-11-29T07:52:02.435Z,101330.81
2022-11-29T07:52:50.008Z,101333.41
2022-11-29T07:53:42.964Z,101331.13
2022-11-29T07:54:30.349Z,101336.19
2022-11-29T07:55:20.488Z,101335.28
2022-11-29T07:56:07.301Z,101336.25
2022-11-29T07:56:54.076Z,101334.44
2022-11-29T07:57:40.595Z,101332.66
2022-11-29T07:58:27.207Z,101338.84
2022-11-29T07:59:16.741Z,101337.06
2022-11-29T08:00:05.004Z,101338.66
2022-11-29T08:00:58.215Z,101339.78
2022-11-29T08:01:48.038Z,101343.19
2022-11-29T08:02:34.944Z,101345.78
2022-11-29T08:03:21.683Z,101342.47
2022-11-29T08:04:09.738Z,101340.88
2022-11-29T08:04:56.631Z,101340.88
2022-11-29T08:05:47.195Z,101338.97
2022-11-29T08:06:34.247Z,101344.16
2022-11-29T08:07:21.187Z,101352.75
2022-11-29T08:08:08.468Z,101347.50
2022-11-29T08:08:58.364Z,101348.34
2022-11-29T08:09:55.808Z,101349.19
2022-11-29T08:10:47.973Z,101353.56
2022-11-29T08:11:43.246Z,101350.97
2022-11-29T08:12:38.210Z,101355.34
2022-11-29T08:13:30.594Z,101357.19
2022-11-29T08:14:21.784Z,101358.00
2022-11-29T08:15:15.533Z,101363.19
2022-11-29T08:16:16.685Z,101357.09
2022-11-29T08:17:06.460Z,101358.00
2022-11-29T08:17:56.487Z,101364.13
2022-11-29T08:18:43.697Z,101364.13
2022-11-29T08:19:30.718Z,101362.38
2022-11-29T08:20:17.590Z,101361.53
2022-11-29T08:21:07.862Z,101370.22
2022-11-29T08:21:57.795Z,101368.44
2022-11-29T08:22:44.854Z,101365.09
2022-11-29T08:23:31.852Z,101366.72
2022-11-29T08:24:19.070Z,101364.09
2022-11-29T08:25:08.005Z,101371.09
2022-11-29T08:26:00.008Z,101372.00
2022-11-29T08:26:47.138Z,101376.59
2022-11-29T08:27:37.747Z,101373.00
2022-11-29T08:28:24.421Z,101377.19
2022-11-29T08:29:11.266Z,101373.75
2022-11-29T08:29:57.876Z,101374.63
2022-11-29T08:30:47.232Z,101377.22
2022-11-29T08:31:34.174Z,101380.63
2022-11-29T08:32:20.948Z,101382.41
2022-11-29T08:33:08.262Z,101384.06
2022-11-29T08:33:54.804Z,101384.13
2022-11-29T08:34:41.351Z,101384.25
2022-11-29T08:35:28.259Z,101386.91
2022-11-29T08:36:19.237Z,101378.31
2022-11-29T08:37:05.992Z,101387.03
2022-11-29T08:37:54.668Z,101389.63
2022-11-29T08:38:41.253Z,101391.34
2022-11-29T08:39:29.055Z,101386.34
2022-11-29T08:40:17.366Z,101388.06
2022-11-29T08:41:10.762Z,101383.75
2022-11-29T08:41:57.362Z,101386.28
2022-11-29T08:42:44.147Z,101396.81
2022-11-29T08:43:31.145Z,101390.81
2022-11-29T08:44:18.164Z,101399.41
2022-11-29T08:45:06.245Z,101393.53
2022-11-29T08:45:52.831Z,101403.03
2022-11-29T08:46:58.060Z,101397.03
2022-11-29T08:47:44.758Z,101399.75
2022-11-29T08:48:33.069Z,101399.75
2022-11-29T08:49:19.731Z,101398.88
2022-11-29T08:50:24.576Z,101404.25
2022-11-29T08:51:11.241Z,101405.06
2022-11-29T08:52:17.403Z,101405.97
2022-11-29T08:53:22.413Z,101400.66
2022-11-29T08:54:09.105Z,101403.25
2022-11-29T08:54:58.929Z,101404.94
2022-11-29T08:55:50.441Z,101400.69
2022-11-29T08:57:46.941Z,101404.50
2022-11-29T08:58:33.776Z,101403.66
2022-11-29T08:59:20.298Z,101402.91
2022-11-29T09:00:07.859Z,101406.47
2022-11-29T09:01:12.983Z,101410.00
2022-11-29T09:01:59.526Z,101406.38
2022-11-29T09:02:46.346Z,101417.59
2022-11-29T09:03:52.381Z,101406.50
2022-11-29T09:04:38.908Z,101401.59
2022-11-29T09:05:26.802Z,101405.88
2022-11-29T09:06:15.908Z,101405.13
2022-11-29T09:07:02.617Z,101411.28
2022-11-29T09:07:50.505Z,101410.31
2022-11-29T09:08:37.376Z,101405.13
2022-11-29T09:09:24.082Z,101406.78
2022-11-29T09:10:12.081Z,101413.75
2022-11-29T09:10:58.786Z,101418.84
2022-11-29T09:11:49.233Z,101413.63
2022-11-29T09:12:37.208Z,101418.81
2022-11-29T09:13:24.258Z,101414.41
2022-11-29T09:14:15.794Z,101415.41
2022-11-29T09:15:05.676Z,101424.13
2022-11-29T09:15:53.701Z,101425.06
2022-11-29T09:16:40.968Z,101420.81
2022-11-29T09:17:30.675Z,101415.69
2022-11-29T09:18:17.516Z,101421.66
2022-11-29T09:19:07.462Z,101429.59
2022-11-29T09:19:56.506Z,101431.38
2022-11-29T09:20:44.638Z,101430.50
2022-11-29T09:21:34.041Z,101427.84
2022-11-29T09:22:21.675Z,101425.19
2022-11-29T09:23:08.249Z,101433.03
2022-11-29T09:23:59.052Z,101438.41
2022-11-29T09:24:48.291Z,101428.03
2022-11-29T09:25:35.187Z,101425.47
2022-11-29T09:26:24.065Z,101441.13
2022-11-29T09:27:11.068Z,101440.09
2022-11-29T09:28:01.993Z,101438.34
2022-11-29T09:28:49.455Z,101434.03
2022-11-29T09:29:36.347Z,101438.44
2022-11-29T09:30:23.948Z,101438.56
2022-11-29T09:31:18.105Z,101446.38
2022-11-29T09:32:05.100Z,101447.19
2022-11-29T09:32:51.709Z,101442.91
2022-11-29T09:33:42.550Z,101442.78
2022-11-29T09:34:29.129Z,101449.75
2022-11-29T09:35:15.855Z,101447.13
2022-11-29T09:36:03.832Z,101447.13
2022-11-29T09:36:51.141Z,101455.91
2022-11-29T09:37:38.009Z,101448.13
2022-11-29T09:38:26.746Z,101446.63
2022-11-29T09:39:17.698Z,101445.06
2022-11-29T09:40:05.581Z,101444.09
2022-11-29T09:41:01.158Z,101443.38
2022-11-29T09:42:44.609Z,101448.41
2022-11-29T09:44:01.842Z,101457.03
2022-11-29T09:44:55.524Z,101456.03
2022-11-29T09:45:49.383Z,101459.63
2022-11-29T09:46:44.369Z,101458.84
2022-11-29T09:47:45.974Z,101452.84
2022-11-29T09:48:32.372Z,101458.84
2022-11-29T09:49:37.550Z,101463.22
2022-11-29T09:50:34.661Z,101463.31
2022-11-29T09:51:56.863Z,101457.41
2022-11-29T09:53:10.549Z,101465.31
2022-11-29T09:53:57.099Z,101461.91
2022-11-29T09:54:55.659Z,101465.38
2022-11-29T09:56:07.061Z,101458.28
2022-11-29T09:56:57.214Z,101473.84
2022-11-29T09:57:46.724Z,101474.75
2022-11-29T09:58:43.633Z,101471.25
2022-11-29T09:59:43.454Z,101472.16
2022-11-29T10:00:35.536Z,101471.38
2022-11-29T10:01:31.323Z,101476.56
2022-11-29T10:02:36.248Z,101473.03
2022-11-29T10:03:31.905Z,101476.41
2022-11-29T10:04:25.463Z,101471.97
2022-11-29T10:05:22.080Z,101479.94
2022-11-29T10:06:23.207Z,101475.47
2022-11-29T10:07:26.426Z,101479.06
2022-11-29T10:08:19.855Z,101474.75
2022-11-29T10:09:33.563Z,101477.47
2022-11-29T10:10:26.573Z,101472.16
2022-11-29T10:11:20.218Z,101475.72
2022-11-29T10:12:22.085Z,101471.34
2022-11-29T10:13:31.485Z,101477.47
2022-11-29T10:14:34.299Z,101467.97
2022-11-29T10:15:29.378Z,101481.88
2022-11-29T10:16:37.198Z,101476.56
2022-11-29T10:17:54.003Z,101481.88
2022-11-29T10:18:49.699Z,101476.78
2022-11-29T10:19:43.045Z,101479.41
2022-11-29T10:20:39.713Z,101482.97
2022-11-29T10:21:36.521Z,101477.75
2022-11-29T10:22:30.499Z,101473.41
2022-11-29T10:23:25.530Z,101481.06
2022-11-29T10:24:18.315Z,101479.28
2022-11-29T10:25:10.452Z,101481.72
2022-11-29T10:25:58.572Z,101487.03
2022-11-29T10:26:45.792Z,101477.41
2022-11-29T10:27:32.450Z,101479.16
2022-11-29T10:28:22.388Z,101473.84
2022-11-29T10:29:15.408Z,101478.19
2022-11-29T10:30:02.659Z,101478.09
2022-11-29T10:30:55.508Z,101480.69
2022-11-29T10:31:49.560Z,101482.56
2022-11-29T10:32:36.139Z,101474.75
2022-11-29T10:33:30.121Z,101479.06
2022-11-29T10:34:21.575Z,101471.22
2022-11-29T10:35:17.894Z,101481.59
2022-11-29T10:36:24.884Z,101481.47
2022-11-29T10:37:17.674Z,101478.06
2022-11-29T10:38:29.874Z,101478.94
2022-11-29T10:39:42.301Z,101480.56
2022-11-29T10:40:38.077Z,101480.78
2022-11-29T10:41:25.835Z,101475.38
2022-11-29T10:42:38.118Z,101473.63
2022-11-29T10:43:26.330Z,101483.09
2022-11-29T10:44:15.377Z,101477.16
2022-11-29T10:45:04.386Z,101478.66
2022-11-29T10:45:56.168Z,101486.38
2022-11-29T10:46:43.314Z,101481.19
2022-11-29T10:47:30.784Z,101488.16
2022-11-29T10:48:21.168Z,101482.91
2022-11-29T10:49:18.713Z,101487.25
2022-11-29T10:50:05.923Z,101485.97
2022-11-29T10:50:53.636Z,101487.59
2022-11-29T10:51:40.409Z,101482.41
2022-11-29T10:52:27.016Z,101483.22
2022-11-29T10:53:17.310Z,101483.13
2022-11-29T10:54:18.251Z,101485.00
2022-11-29T10:55:05.551Z,101488.41
2022-11-29T10:56:01.246Z,101484.09
2022-11-29T10:56:48.540Z,101484.09
2022-11-29T10:57:36.489Z,101483.91
2022-11-29T10:58:28.477Z,101481.31
2022-11-29T10:59:33.109Z,101494.22
2022-11-29T11:00:20.119Z,101482.06
2022-11-29T11:01:08.804Z,101489.94
2022-11-29T11:01:56.475Z,101484.63
2022-11-29T11:02:43.002Z,101478.53